createdAt,value
2018-03-27T00:01:15.106Z,5.20
2018-03-27T00:03:58.015Z,5.30
2018-03-27T00:06:26.311Z,5.40
2018-03-27T00:09:00.271Z,5.50
2018-03-27T00:11:27.798Z,5.50
2018-03-27T00:14:03.285Z,5.50
2018-03-27T00:16:38.453Z,5.60
2018-03-27T00:19:11.062Z,5.60
2018-03-27T00:21:44.673Z,5.60
2018-03-27T00:24:22.470Z,5.60
2018-03-27T00:27:00.988Z,5.60
2018-03-27T00:29:44.010Z,5.60
2018-03-27T00:32:25.901Z,5.60
2018-03-27T00:35:10.213Z,5.70
2018-03-27T00:37:59.376Z,5.70
2018-03-27T00:40:44.949Z,5.70
2018-03-27T00:43:22.925Z,5.70
2018-03-27T00:46:00.273Z,5.80
2018-03-27T00:48:27.784Z,5.60
2018-03-27T00:51:03.689Z,5.40
2018-03-27T00:53:40.937Z,5.40
2018-03-27T00:56:19.578Z,4.60
2018-03-27T00:58:58.262Z,5.20
2018-03-27T01:01:26.753Z,5.10
2018-03-27T01:04:04.087Z,5.10
2018-03-27T01:06:37.636Z,5.00
2018-03-27T01:09:15.047Z,5.00
2018-03-27T01:11:55.669Z,5.00
2018-03-27T01:14:25.222Z,5.00
2018-03-27T01:17:02.696Z,5.00
2018-03-27T01:19:31.123Z,4.90
2018-03-27T01:22:02.503Z,5.00
2018-03-27T01:24:32.285Z,5.00
2018-03-27T01:27:02.085Z,5.00
2018-03-27T01:29:29.536Z,5.00
2018-03-27T01:32:00.887Z,5.00
2018-03-27T01:34:28.348Z,5.00
2018-03-27T01:37:01.444Z,5.00
2018-03-27T01:39:28.902Z,5.00
2018-03-27T01:42:02.821Z,5.00
2018-03-27T01:44:32.475Z,5.00
2018-03-27T01:47:05.262Z,4.90
2018-03-27T01:49:42.808Z,4.90
2018-03-27T01:52:10.274Z,4.80
2018-03-27T01:54:42.000Z,4.70
2018-03-27T01:57:20.366Z,4.60
2018-03-27T01:59:58.596Z,4.60
2018-03-27T02:02:26.054Z,4.50
2018-03-27T02:04:59.603Z,4.40
2018-03-27T02:07:59.229Z,4.20
2018-03-27T02:10:26.733Z,4.20
2018-03-27T02:13:04.794Z,4.10
2018-03-27T02:15:46.798Z,4.10
2018-03-27T02:18:25.284Z,4.00
2018-03-27T02:21:05.455Z,4.00
2018-03-27T02:23:41.518Z,4.00
2018-03-27T02:26:20.340Z,3.90
2018-03-27T02:28:57.829Z,3.90
2018-03-27T02:31:25.286Z,3.90
2018-03-27T02:34:01.547Z,3.80
2018-03-27T02:36:29.014Z,3.80
2018-03-27T02:39:00.800Z,3.80
2018-03-27T02:41:28.265Z,3.70
2018-03-27T02:44:06.773Z,3.70
2018-03-27T02:46:41.835Z,3.70
2018-03-27T02:49:22.948Z,3.70
2018-03-27T02:51:59.072Z,3.80
2018-03-27T02:54:26.550Z,3.80
2018-03-27T02:57:02.115Z,3.80
2018-03-27T02:59:32.114Z,3.80
2018-03-27T03:02:05.235Z,3.80
2018-03-27T03:04:43.489Z,3.80
2018-03-27T03:07:19.941Z,3.80
2018-03-27T03:10:00.074Z,3.90
2018-03-27T03:12:27.534Z,3.90
2018-03-27T03:15:03.216Z,3.90
2018-03-27T03:17:30.673Z,3.90
2018-03-27T03:20:07.429Z,4.00
2018-03-27T03:22:42.316Z,4.00
2018-03-27T03:25:21.478Z,4.00
2018-03-27T03:27:53.932Z,4.00
2018-03-27T03:30:28.317Z,4.00
2018-03-27T03:33:01.966Z,4.00
2018-03-27T03:35:32.951Z,4.00
2018-03-27T03:38:03.113Z,4.00
2018-03-27T03:40:39.722Z,4.00
2018-03-27T03:43:21.771Z,4.00
2018-03-27T03:45:59.108Z,4.00
2018-03-27T03:48:48.181Z,4.00
2018-03-27T03:51:22.314Z,4.00
2018-03-27T03:53:59.391Z,4.00
2018-03-27T03:56:27.013Z,4.00
2018-03-27T03:59:01.342Z,4.00
2018-03-27T04:01:30.540Z,4.00
2018-03-27T04:04:03.728Z,3.90
2018-03-27T04:06:36.207Z,4.00
2018-03-27T04:09:07.004Z,4.00
2018-03-27T04:11:43.769Z,4.00
2018-03-27T04:14:22.909Z,4.00
2018-03-27T04:17:00.030Z,4.00
2018-03-27T04:19:28.111Z,4.00
2018-03-27T04:22:04.257Z,4.00
2018-03-27T04:24:37.726Z,3.90
2018-03-27T04:27:10.658Z,4.00
2018-03-27T04:29:45.332Z,4.00
2018-03-27T04:32:24.884Z,4.00
2018-03-27T04:35:04.080Z,4.00
2018-03-27T04:37:38.598Z,4.00
2018-03-27T04:40:18.875Z,4.00
2018-03-27T04:45:24.210Z,4.00
2018-03-27T04:48:02.572Z,4.00
2018-03-27T04:50:36.518Z,4.00
2018-03-27T04:55:51.349Z,4.10
2018-03-27T04:58:24.016Z,4.10
2018-03-27T05:01:01.798Z,4.10
2018-03-27T05:03:34.150Z,4.10
2018-03-27T05:06:03.961Z,4.10
2018-03-27T05:08:37.891Z,4.10
2018-03-27T05:11:14.538Z,4.00
2018-03-27T05:13:48.582Z,4.00
2018-03-27T05:16:22.994Z,3.80
2018-03-27T05:19:02.215Z,3.80
2018-03-27T05:21:29.672Z,3.80
2018-03-27T05:24:03.102Z,3.70
2018-03-27T05:26:36.394Z,3.60
2018-03-27T05:31:48.263Z,3.60
2018-03-27T05:34:25.396Z,3.60
2018-03-27T05:37:05.751Z,3.70
2018-03-27T05:42:24.937Z,3.70
2018-03-27T05:45:05.032Z,3.80
2018-03-27T05:47:38.274Z,3.80
2018-03-27T05:50:14.945Z,3.90
2018-03-27T05:52:56.732Z,3.90
2018-03-27T05:55:28.929Z,3.90
2018-03-27T05:58:01.572Z,4.00
2018-03-27T06:03:25.605Z,4.10
2018-03-27T06:06:05.560Z,4.20
2018-03-27T06:08:44.462Z,4.30
2018-03-27T06:11:25.838Z,4.50
2018-03-27T06:14:03.550Z,4.50
2018-03-27T06:16:33.296Z,4.50
2018-03-27T06:19:03.255Z,4.50
2018-03-27T06:21:35.468Z,4.50
2018-03-27T06:24:13.986Z,4.40
2018-03-27T06:29:22.687Z,4.50
2018-03-27T06:32:02.163Z,4.60
2018-03-27T06:34:29.622Z,4.70
2018-03-27T06:37:06.507Z,4.80
2018-03-27T06:39:43.021Z,4.90
2018-03-27T06:42:25.980Z,4.90
2018-03-27T06:45:06.002Z,5.00
2018-03-27T06:47:47.832Z,5.20
2018-03-27T06:50:20.824Z,5.20
2018-03-27T06:53:02.530Z,5.30
2018-03-27T06:55:30.475Z,5.40
2018-03-27T06:58:05.013Z,5.50
2018-03-27T07:00:43.791Z,5.50
2018-03-27T07:03:18.251Z,5.60
2018-03-27T07:05:57.584Z,5.60
2018-03-27T07:08:25.880Z,5.70
2018-03-27T07:11:01.672Z,5.70
2018-03-27T07:13:29.229Z,5.80
2018-03-27T07:19:00.484Z,5.80
2018-03-27T07:48:46.035Z,5.80
2018-03-27T07:53:55.523Z,6.10
2018-03-27T07:56:23.021Z,6.30
2018-03-27T07:58:50.494Z,6.40
2018-03-27T08:01:17.970Z,6.50
2018-03-27T08:03:46.984Z,6.50
2018-03-27T08:06:14.464Z,6.60
2018-03-27T08:11:30.893Z,6.90
2018-03-27T08:13:58.359Z,7.10
2018-03-27T08:16:25.837Z,7.30
2018-03-27T08:19:07.965Z,7.50
2018-03-27T08:21:42.422Z,7.50
2018-03-27T08:24:10.826Z,7.50
2018-03-27T08:26:52.368Z,7.50
2018-03-27T08:29:34.411Z,7.30
2018-03-27T08:32:01.869Z,7.30
2018-03-27T08:34:29.341Z,7.20
2018-03-27T08:37:10.300Z,7.20
2018-03-27T08:39:42.433Z,7.20
2018-03-27T08:42:10.066Z,7.10
2018-03-27T08:44:47.546Z,7.00
2018-03-27T08:47:28.768Z,6.90
2018-03-27T08:49:56.478Z,6.90
2018-03-27T08:52:23.967Z,6.90
2018-03-27T08:54:57.247Z,6.80
2018-03-27T08:57:24.751Z,6.90
2018-03-27T09:00:09.381Z,7.00
2018-03-27T09:02:38.406Z,7.30
2018-03-27T09:05:06.325Z,7.30
2018-03-27T09:10:32.943Z,7.60
2018-03-27T09:13:00.517Z,7.70
2018-03-27T09:15:28.748Z,8.00
2018-03-27T09:18:10.569Z,8.00
2018-03-27T09:20:40.805Z,8.20
2018-03-27T09:23:08.291Z,8.30
2018-03-27T09:25:51.385Z,8.50
2018-03-27T09:28:27.586Z,8.60
2018-03-27T09:30:55.049Z,8.60
2018-03-27T09:33:28.628Z,8.70
2018-03-27T09:36:09.584Z,8.60
2018-03-27T09:38:37.065Z,8.60
2018-03-27T09:41:04.550Z,8.60
2018-03-27T09:43:41.444Z,8.70
2018-03-27T09:46:17.500Z,8.70
2018-03-27T09:48:55.549Z,8.80
2018-03-27T09:51:23.010Z,9.00
2018-03-27T09:54:05.046Z,9.10
2018-03-27T09:56:33.285Z,9.30
2018-03-27T09:59:00.780Z,9.50
2018-03-27T10:01:29.088Z,9.70
2018-03-27T10:04:08.193Z,9.70
2018-03-27T10:06:43.021Z,10.00
2018-03-27T10:09:11.583Z,10.00
2018-03-27T10:11:48.972Z,10.00
2018-03-27T10:14:16.463Z,10.00
2018-03-27T10:19:27.873Z,10.00
2018-03-27T10:22:11.415Z,10.00
2018-03-27T10:24:39.741Z,10.10
2018-03-27T10:30:15.534Z,10.20
2018-03-27T10:35:31.379Z,10.30
2018-03-27T10:38:03.671Z,10.60
2018-03-27T10:40:31.154Z,10.70
2018-03-27T10:43:14.851Z,10.90
2018-03-27T10:45:42.344Z,11.00
2018-03-27T10:50:52.197Z,11.20
2018-03-27T10:53:19.666Z,11.40
2018-03-27T10:56:01.132Z,11.50
2018-03-27T10:58:28.625Z,11.60
2018-03-27T11:00:56.164Z,11.90
2018-03-27T11:03:24.186Z,12.10
2018-03-27T11:06:04.543Z,12.50
2018-03-27T11:08:34.602Z,12.40
2018-03-27T11:11:15.865Z,12.30
2018-03-27T11:13:59.100Z,12.00
2018-03-27T11:16:30.590Z,11.90
2018-03-27T11:18:58.051Z,11.80
2018-03-27T11:21:34.057Z,11.60
2018-03-27T11:24:13.150Z,11.60
2018-03-27T11:32:51.711Z,11.40
2018-03-27T11:35:19.956Z,11.10
2018-03-27T11:37:54.763Z,11.10
2018-03-27T11:40:30.103Z,11.00
2018-03-27T11:43:09.828Z,10.90
2018-03-27T11:45:48.848Z,10.90
2018-03-27T11:48:28.026Z,10.90
2018-03-27T11:51:09.281Z,11.00
2018-03-27T11:53:52.916Z,11.10
2018-03-27T11:56:26.517Z,11.30
2018-03-27T11:58:55.568Z,11.40
2018-03-27T12:01:23.808Z,11.90
2018-03-27T12:04:06.282Z,11.90
2018-03-27T12:06:45.348Z,12.20
2018-03-27T12:09:30.769Z,12.40
2018-03-27T12:11:58.252Z,12.40
2018-03-27T12:14:25.727Z,12.50
2018-03-27T12:17:00.416Z,12.60
2018-03-27T12:19:34.107Z,12.60
2018-03-27T12:22:02.374Z,12.60
2018-03-27T12:24:30.916Z,12.60
2018-03-27T12:27:08.808Z,12.60
2018-03-27T12:29:39.998Z,12.60
2018-03-27T12:32:07.483Z,12.50
2018-03-27T12:34:43.136Z,12.50
2018-03-27T12:37:30.151Z,12.40
2018-03-27T12:40:10.864Z,12.40
2018-03-27T12:42:38.344Z,12.50
2018-03-27T12:45:06.920Z,12.60
2018-03-27T12:47:47.715Z,12.70
2018-03-27T12:50:28.440Z,12.70
2018-03-27T12:52:56.110Z,12.70
2018-03-27T12:55:32.559Z,12.80
2018-03-27T12:58:02.065Z,12.60
2018-03-27T13:00:30.297Z,12.50
2018-03-27T13:03:11.495Z,12.50
2018-03-27T13:05:39.080Z,12.30
2018-03-27T13:08:13.453Z,12.00
2018-03-27T13:10:40.942Z,12.00
2018-03-27T13:13:08.418Z,11.70
2018-03-27T13:15:50.202Z,11.40
2018-03-27T13:18:28.735Z,11.10
2018-03-27T13:21:08.535Z,11.00
2018-03-27T13:23:49.204Z,11.00
2018-03-27T13:32:09.239Z,11.20
2018-03-27T13:34:46.521Z,11.40
2018-03-27T13:40:03.459Z,11.30
2018-03-27T13:42:33.104Z,11.30
2018-03-27T13:45:12.870Z,11.20
2018-03-27T13:47:42.754Z,11.20
2018-03-27T13:50:30.234Z,11.00
2018-03-27T13:52:57.702Z,11.00
2018-03-27T13:55:25.180Z,11.00
2018-03-27T13:58:06.943Z,10.90
2018-03-27T14:00:37.320Z,10.90
2018-03-27T14:03:05.572Z,11.10
2018-03-27T14:05:43.339Z,11.10
2018-03-27T14:08:22.329Z,11.20
2018-03-27T14:11:02.938Z,11.30
2018-03-27T14:13:36.486Z,11.30
2018-03-27T14:16:04.720Z,11.10
2018-03-27T14:18:37.491Z,11.10
2018-03-27T14:21:11.738Z,10.90
2018-03-27T14:23:46.898Z,10.80
2018-03-27T14:26:23.765Z,10.50
2018-03-27T14:28:51.302Z,10.50
2018-03-27T14:31:27.768Z,10.50
2018-03-27T14:34:02.851Z,10.60
2018-03-27T14:36:31.097Z,10.80
2018-03-27T14:39:07.387Z,10.80
2018-03-27T14:41:52.037Z,10.80
2018-03-27T14:44:25.210Z,10.90
2018-03-27T14:47:03.313Z,10.90
2018-03-27T14:49:30.848Z,10.90
2018-03-27T14:52:05.707Z,10.90
2018-03-27T14:54:40.931Z,10.80
2018-03-27T14:57:08.407Z,10.60
2018-03-27T14:59:48.894Z,10.50
2018-03-27T15:02:16.367Z,10.50
2018-03-27T15:04:58.922Z,10.50
2018-03-27T15:07:27.212Z,10.40
2018-03-27T15:10:08.148Z,10.40
2018-03-27T15:12:51.007Z,10.40
2018-03-27T15:15:23.855Z,10.10
2018-03-27T15:21:08.965Z,9.80
2018-03-27T15:54:13.675Z,8.70
2018-03-27T15:56:47.633Z,8.60
2018-03-27T15:59:24.317Z,8.60
2018-03-27T16:02:02.885Z,8.50
2018-03-27T16:10:46.165Z,8.30
2018-03-27T16:13:33.973Z,8.30
2018-03-27T16:22:04.069Z,8.30
2018-03-27T16:24:47.690Z,8.30
2018-03-27T16:27:32.254Z,8.20
2018-03-27T16:30:10.830Z,8.10
2018-03-27T16:32:38.315Z,8.10
2018-03-27T16:35:09.453Z,8.10
2018-03-27T16:37:49.099Z,8.10
2018-03-27T16:40:30.284Z,8.00
2018-03-27T16:43:10.086Z,8.00
2018-03-27T16:45:43.378Z,7.90
2018-03-27T16:48:11.201Z,7.90
2018-03-27T16:50:54.935Z,7.90
2018-03-27T16:53:33.397Z,7.90
2018-03-27T16:56:00.917Z,7.80
2018-03-27T16:58:28.331Z,7.80
2018-03-27T17:01:07.154Z,7.70
2018-03-27T17:03:45.080Z,7.60
2018-03-27T17:06:13.538Z,7.50
2018-03-27T17:08:55.192Z,7.50
2018-03-27T17:11:30.152Z,7.40
2018-03-27T17:13:57.686Z,7.40
2018-03-27T17:16:26.056Z,7.30
2018-03-27T17:21:39.055Z,7.40
2018-03-27T17:24:16.117Z,7.30
2018-03-27T17:27:01.360Z,7.20
2018-03-27T17:29:32.488Z,7.10
2018-03-27T17:32:14.359Z,7.00
2018-03-27T17:34:57.755Z,6.90
2018-03-27T17:37:32.092Z,6.90
2018-03-27T17:40:15.526Z,6.90
2018-03-27T17:42:43.150Z,6.90
2018-03-27T17:45:29.785Z,6.80
2018-03-27T17:48:09.275Z,6.80
2018-03-27T17:50:39.009Z,6.80
2018-03-27T17:53:07.277Z,6.80
2018-03-27T17:55:36.828Z,6.70
2018-03-27T17:58:04.314Z,6.70
2018-03-27T18:00:31.812Z,6.70
2018-03-27T18:03:09.672Z,6.60
2018-03-27T18:05:41.249Z,6.60
2018-03-27T18:08:10.049Z,6.60
2018-03-27T18:10:49.914Z,6.60
2018-03-27T18:13:27.469Z,6.50
2018-03-27T18:16:05.289Z,6.50
2018-03-27T18:18:35.840Z,6.50
2018-03-27T18:21:04.094Z,6.50
2018-03-27T18:23:32.103Z,6.50
2018-03-27T18:26:14.048Z,6.50
2018-03-27T18:28:44.448Z,6.50
2018-03-27T18:31:11.943Z,6.50
2018-03-27T18:33:54.553Z,6.50
2018-03-27T18:36:27.519Z,6.50
2018-03-27T18:38:55.836Z,6.40
2018-03-27T18:41:23.327Z,6.40
2018-03-27T18:43:57.699Z,6.40
2018-03-27T18:46:25.235Z,6.40
2018-03-27T18:49:08.515Z,6.30
2018-03-27T18:51:40.217Z,6.40
2018-03-27T18:54:26.507Z,6.40
2018-03-27T18:57:15.264Z,6.40
2018-03-27T18:59:55.290Z,6.30
2018-03-27T19:02:23.734Z,6.50
2018-03-27T19:07:58.783Z,6.50
2018-03-27T19:10:28.474Z,6.40
2018-03-27T19:13:11.152Z,6.40
2018-03-27T19:15:40.001Z,6.40
2018-03-27T19:18:07.507Z,6.40
2018-03-27T19:20:52.796Z,6.50
2018-03-27T19:23:29.495Z,6.40
2018-03-27T19:25:57.012Z,6.50
2018-03-27T19:28:24.521Z,6.50
2018-03-27T19:30:59.035Z,6.50
2018-03-27T19:33:26.681Z,6.50
2018-03-27T19:38:46.309Z,6.50
2018-03-27T19:44:13.310Z,6.40
2018-03-27T19:47:00.627Z,6.40
2018-03-27T19:59:34.047Z,6.30
2018-03-27T20:02:01.515Z,6.30
2018-03-27T20:04:31.332Z,6.40
2018-03-27T20:07:06.132Z,6.40
2018-03-27T20:09:42.680Z,6.30
2018-03-27T20:12:10.810Z,6.40
2018-03-27T20:14:38.771Z,6.40
2018-03-27T20:17:07.000Z,6.40
2018-03-27T20:19:42.239Z,6.40
2018-03-27T20:22:09.746Z,6.40
2018-03-27T20:24:38.001Z,6.40
2018-03-27T20:27:05.486Z,6.40
2018-03-27T20:29:33.757Z,6.40
2018-03-27T20:32:01.302Z,6.40
2018-03-27T20:34:28.782Z,6.40
2018-03-27T20:36:57.036Z,6.40
2018-03-27T20:39:24.507Z,6.40
2018-03-27T20:42:11.787Z,6.50
2018-03-27T20:44:59.509Z,6.40
2018-03-27T20:47:29.615Z,6.40
2018-03-27T20:50:10.089Z,6.50
2018-03-27T20:52:43.956Z,6.50
2018-03-27T20:55:28.613Z,6.50
2018-03-27T20:58:22.050Z,6.50
2018-03-27T21:06:39.782Z,6.50
2018-03-27T21:12:03.675Z,6.50
2018-03-27T21:14:43.859Z,6.50
2018-03-27T21:17:12.435Z,6.50
2018-03-27T21:19:57.007Z,6.50
2018-03-27T21:22:31.832Z,6.50
2018-03-27T21:25:13.562Z,6.50
2018-03-27T21:27:42.043Z,6.60
2018-03-27T21:32:54.335Z,6.60
2018-03-27T21:35:21.890Z,6.60
2018-03-27T21:38:02.080Z,6.60
2018-03-27T21:40:32.797Z,6.60
2018-03-27T21:43:02.733Z,6.60
2018-03-27T21:45:30.970Z,6.60
2018-03-27T21:48:11.395Z,6.60
2018-03-27T21:50:42.502Z,6.60
2018-03-27T21:53:09.968Z,6.70
2018-03-27T21:55:47.119Z,6.70
2018-03-27T21:58:24.758Z,6.60
2018-03-27T22:01:02.182Z,6.70
2018-03-27T22:03:49.021Z,6.70
2018-03-27T22:06:29.033Z,6.70
2018-03-27T22:09:06.039Z,6.70
2018-03-27T22:11:36.016Z,6.70
2018-03-27T22:14:12.414Z,6.80
2018-03-27T22:16:48.959Z,6.70
2018-03-27T22:19:25.796Z,6.70
2018-03-27T22:22:03.853Z,6.80
2018-03-27T22:24:31.323Z,6.80
2018-03-27T22:27:09.595Z,6.80
2018-03-27T22:29:44.657Z,6.80
2018-03-27T22:32:25.779Z,6.80
2018-03-27T22:35:04.638Z,6.80
2018-03-27T22:37:32.908Z,6.90
2018-03-27T22:40:09.417Z,6.90
2018-03-27T22:42:44.010Z,6.90
2018-03-27T22:45:22.991Z,6.90
2018-03-27T22:48:04.204Z,6.90
2018-03-27T22:50:32.455Z,7.00
2018-03-27T22:53:06.668Z,7.00
2018-03-27T22:55:41.050Z,7.00
2018-03-27T23:00:54.199Z,7.00
2018-03-27T23:03:23.010Z,7.00
2018-03-27T23:08:29.294Z,7.10
2018-03-27T23:11:04.751Z,7.10
2018-03-27T23:13:32.241Z,7.10
2018-03-27T23:15:59.711Z,7.10
2018-03-27T23:18:27.288Z,7.10
2018-03-27T23:20:55.562Z,7.20
2018-03-27T23:23:24.067Z,7.20
2018-03-27T23:26:03.918Z,7.20
2018-03-27T23:28:32.146Z,7.30
2018-03-27T23:31:10.308Z,7.20
2018-03-27T23:33:43.633Z,7.30
2018-03-27T23:36:25.540Z,7.30
2018-03-27T23:39:05.379Z,7.30
2018-03-27T23:41:32.967Z,7.30
2018-03-27T23:44:05.968Z,7.30
2018-03-27T23:46:35.193Z,7.30
2018-03-27T23:49:12.499Z,7.30
2018-03-27T23:51:52.052Z,7.30
2018-03-27T23:54:25.593Z,7.30
2018-03-27T23:57:03.746Z,7.40
2018-03-27T23:59:31.979Z,7.40
